Time;durP1;ratioP1;P1;durP2;ratioP2;P2;SDS_P1;SDS_P2;PMS_P1;PMS_P2;Temp;Humidity;BMP_temperature;BMP_pressure;BME280_temperature;BME280_humidity;BME280_pressure;Samples;Min_cycle;Max_cycle;Signal;HPM_P1;HPM_P2
2023/01/25 00:05:04;;;;;;;22.40;20.00;;;23.20;55.30;;;;;;221789;1259;25445;-45
2023/01/25 00:10:09;;;;;;;23.20;18.90;;;23.10;54.80;;;;;;221698;1257;22620;-46
2023/01/25 00:15:13;;;;;;;24.80;19.60;;;23.00;54.70;;;;;;221852;1257;22749;-45
2023/01/25 00:20:17;;;;;;;20.20;18.20;;;23.00;54.60;;;;;;221804;1271;22541;-45
2023/01/25 00:25:22;;;;;;;22.90;18.00;;;23.10;54.20;;;;;;221863;1271;22888;-44
2023/01/25 00:30:26;;;;;;;20.40;17.60;;;23.20;54.00;;;;;;221888;1263;22538;-45
2023/01/25 00:35:31;;;;;;;20.00;17.90;;;23.30;53.70;;;;;;221792;1266;22678;-44
2023/01/25 00:40:35;;;;;;;19.90;17.80;;;23.30;53.40;;;;;;221596;1266;24263;-45
2023/01/25 00:45:41;;;;;;;19.90;16.90;;;23.50;53.20;;;;;;221630;1271;24171;-44
2023/01/25 00:50:45;;;;;;;19.00;17.00;;;23.50;52.90;;;;;;221785;1271;25162;-45
2023/01/25 00:55:53;;;;;;;19.20;17.00;;;23.40;53.10;;;;;;221796;1269;22817;-44
2023/01/25 01:00:57;;;;;;;19.50;17.30;;;23.30;53.20;;;;;;221789;1270;24314;-47
2023/01/25 01:06:05;;;;;;;19.50;17.00;;;23.20;53.40;;;;;;221419;1264;22558;-45
2023/01/25 01:11:11;;;;;;;20.30;17.30;;;23.10;53.80;;;;;;226373;1268;25612;-50
2023/01/25 01:16:15;;;;;;;18.40;16.50;;;23.00;53.80;;;;;;221459;1271;24174;-49
2023/01/25 01:21:20;;;;;;;19.40;17.10;;;22.90;54.00;;;;;;228379;1269;24231;-51
2023/01/25 01:26:24;;;;;;;20.30;18.20;;;23.10;53.90;;;;;;229708;1269;22182;-45
2023/01/25 01:31:28;;;;;;;19.70;17.10;;;23.40;52.90;;;;;;222579;1267;24951;-45
2023/01/25 01:36:43;;;;;;;20.10;18.00;;;23.10;53.70;;;;;;221749;1264;22506;-48
2023/01/25 01:41:47;;;;;;;20.90;18.50;;;23.00;54.10;;;;;;221862;1257;24033;-44
2023/01/25 01:46:57;;;;;;;20.70;18.10;;;22.90;54.50;;;;;;221828;1266;22651;-44
2023/01/25 01:52:19;;;;;;;20.70;18.30;;;22.80;55.10;;;;;;221776;1269;25281;-44
2023/01/25 01:57:34;;;;;;;20.50;18.30;;;22.80;55.30;;;;;;221739;1260;25379;-48
2023/01/25 02:02:39;;;;;;;20.60;18.00;;;22.70;55.40;;;;;;221885;1259;22571;-43
2023/01/25 02:07:45;;;;;;;21.40;18.30;;;22.60;56.10;;;;;;221729;1269;22781;-46
2023/01/25 02:12:53;;;;;;;20.70;18.50;;;22.60;56.30;;;;;;222131;1271;158090;-43
2023/01/25 02:17:58;;;;;;;20.80;18.40;;;22.60;56.00;;;;;;224905;1264;27765;-48
2023/01/25 02:23:18;;;;;;;21.80;18.90;;;22.60;56.00;;;;;;224832;1259;24192;-47
2023/01/25 02:28:29;;;;;;;21.80;19.50;;;22.60;56.20;;;;;;221782;1257;22538;-46
2023/01/25 02:33:33;;;;;;;21.90;19.60;;;22.40;57.00;;;;;;221854;1267;22581;-47
2023/01/25 02:38:50;;;;;;;22.80;20.40;;;22.30;57.10;;;;;;221822;1259;22524;-43
2023/01/25 02:43:55;;;;;;;21.60;19.40;;;22.60;56.80;;;;;;222159;1260;22547;-44
2023/01/25 02:49:00;;;;;;;22.20;19.90;;;22.50;57.00;;;;;;221886;1267;25433;-44
2023/01/25 02:54:07;;;;;;;21.00;18.80;;;22.30;56.90;;;;;;221886;1271;25570;-45
2023/01/25 02:59:12;;;;;;;19.40;17.30;;;22.10;56.90;;;;;;221902;1271;24298;-45
2023/01/25 03:04:18;;;;;;;21.20;19.10;;;22.10;56.80;;;;;;221893;1270;22647;-44
2023/01/25 03:09:23;;;;;;;23.20;18.30;;;22.00;57.00;;;;;;221946;1270;22514;-47
2023/01/25 03:14:27;;;;;;;21.50;17.30;;;21.90;56.70;;;;;;222044;1260;22634;-45
2023/01/25 03:19:32;;;;;;;18.30;16.50;;;21.90;56.70;;;;;;221983;1250;23905;-45
2023/01/25 03:24:36;;;;;;;20.00;17.90;;;21.80;56.80;;;;;;222088;1267;22561;-45
2023/01/25 03:29:42;;;;;;;18.60;16.70;;;21.70;57.20;;;;;;222036;1265;23002;-45
2023/01/25 03:34:50;;;;;;;17.70;15.90;;;21.70;57.20;;;;;;221878;1258;22668;-43
2023/01/25 03:39:55;;;;;;;19.20;17.20;;;21.60;56.90;;;;;;221806;1271;25418;-43
2023/01/25 03:44:59;;;;;;;17.80;16.00;;;21.60;57.00;;;;;;222000;1259;22549;-44
2023/01/25 03:50:04;;;;;;;19.50;17.50;;;21.60;56.90;;;;;;222026;1269;24205;-43
2023/01/25 03:55:08;;;;;;;17.70;15.90;;;21.60;56.90;;;;;;221918;1270;25410;-45
2023/01/25 04:00:16;;;;;;;17.60;15.70;;;21.50;57.00;;;;;;229668;1270;22146;-44
2023/01/25 04:05:22;;;;;;;17.90;16.10;;;21.60;56.70;;;;;;226806;1270;22993;-46
2023/01/25 04:10:27;;;;;;;17.50;15.70;;;21.70;56.70;;;;;;221920;1270;22549;-47
2023/01/25 04:15:31;;;;;;;17.70;15.90;;;21.60;56.30;;;;;;221936;1270;22612;-45
2023/01/25 04:20:40;;;;;;;17.50;15.60;;;21.60;56.70;;;;;;221841;1270;22752;-45
2023/01/25 04:25:58;;;;;;;18.30;16.50;;;21.90;55.70;;;;;;222128;1270;22622;-43
2023/01/25 04:31:04;;;;;;;16.30;14.70;;;22.30;55.50;;;;;;222132;1270;22541;-44
2023/01/25 04:36:12;;;;;;;17.90;16.10;;;22.60;54.40;;;;;;221998;1264;22590;-44
2023/01/25 04:41:16;;;;;;;16.30;14.80;;;22.90;53.60;;;;;;221999;1269;22539;-46
2023/01/25 04:46:20;;;;;;;14.70;13.30;;;23.00;53.20;;;;;;222084;1260;22532;-45
2023/01/25 04:51:25;;;;;;;15.70;14.20;;;23.10;52.90;;;;;;221887;1264;22538;-45
2023/01/25 04:56:29;;;;;;;14.80;13.40;;;23.10;52.90;;;;;;221965;1269;25589;-44
2023/01/25 05:01:34;;;;;;;15.70;14.20;;;23.10;53.00;;;;;;221848;1266;22528;-47
2023/01/25 05:06:40;;;;;;;16.30;14.60;;;23.00;52.60;;;;;;221891;1263;22673;-45
2023/01/25 05:11:45;;;;;;;13.70;12.40;;;23.00;53.10;;;;;;221936;1264;22553;-45
2023/01/25 05:17:20;;;;;;;14.40;12.90;;;23.10;53.00;;;;;;221858;1270;22678;-45
2023/01/25 05:22:24;;;;;;;15.20;13.80;;;23.20;52.80;;;;;;222019;1264;25344;-46
2023/01/25 05:27:29;;;;;;;14.70;13.30;;;23.30;52.70;;;;;;221828;1267;22547;-45
2023/01/25 05:32:33;;;;;;;14.20;13.00;;;23.30;52.50;;;;;;221975;1264;22552;-47
2023/01/25 05:37:37;;;;;;;14.70;13.20;;;23.40;52.70;;;;;;221989;1258;22764;-45
2023/01/25 05:42:44;;;;;;;14.30;12.90;;;23.40;52.20;;;;;;221847;1255;22727;-45
2023/01/25 05:47:54;;;;;;;14.60;13.10;;;23.40;52.20;;;;;;221926;1264;25402;-49
2023/01/25 05:52:58;;;;;;;14.20;12.60;;;23.40;52.40;;;;;;221745;1266;22538;-44
2023/01/25 05:58:03;;;;;;;13.80;12.50;;;23.20;52.70;;;;;;221755;1257;22534;-45
2023/01/25 06:03:08;;;;;;;14.10;12.70;;;23.00;53.60;;;;;;221883;1267;22530;-46
2023/01/25 06:08:14;;;;;;;15.10;13.50;;;23.10;52.90;;;;;;221839;1258;22632;-45
2023/01/25 06:13:22;;;;;;;13.90;12.50;;;23.10;52.90;;;;;;221839;1267;22613;-45
2023/01/25 06:18:29;;;;;;;13.70;12.30;;;22.90;53.10;;;;;;221903;1267;25081;-45
2023/01/25 06:23:54;;;;;;;14.70;13.20;;;22.80;53.10;;;;;;221834;1256;23912;-45
2023/01/25 06:28:58;;;;;;;13.60;12.20;;;22.70;53.30;;;;;;221905;1270;25590;-44
2023/01/25 06:34:05;;;;;;;14.00;12.70;;;22.70;53.40;;;;;;221863;1270;22762;-44
2023/01/25 06:39:09;;;;;;;15.00;13.50;;;22.60;53.50;;;;;;221939;1267;25418;-44
2023/01/25 06:44:13;;;;;;;13.40;12.10;;;22.50;53.90;;;;;;221975;1267;23931;-44
2023/01/25 06:49:17;;;;;;;14.80;12.60;;;22.40;54.20;;;;;;222014;1260;22628;-45
2023/01/25 06:54:21;;;;;;;14.40;12.90;;;22.30;54.70;;;;;;221934;1254;24228;-45
2023/01/25 06:59:25;;;;;;;13.50;12.20;;;22.10;54.30;;;;;;221866;1257;24212;-41
2023/01/25 07:04:29;;;;;;;14.70;12.20;;;22.20;54.70;;;;;;221903;1264;22534;-40
2023/01/25 07:09:35;;;;;;;19.50;13.00;;;22.20;54.80;;;;;;222133;1267;22521;-43
2023/01/25 07:14:38;;;;;;;14.80;13.00;;;22.10;54.90;;;;;;221763;1270;22547;-40
2023/01/25 07:19:43;;;;;;;17.70;12.60;;;22.20;56.00;;;;;;222209;1270;22668;-42
2023/01/25 07:24:51;;;;;;;13.00;11.80;;;22.20;54.70;;;;;;221929;1260;22889;-42
2023/01/25 07:29:55;;;;;;;15.00;11.90;;;22.20;55.90;;;;;;221964;1257;22539;-44
2023/01/25 07:34:59;;;;;;;13.10;11.80;;;22.20;56.20;;;;;;222014;1262;25437;-41
2023/01/25 07:40:03;;;;;;;15.70;11.80;;;22.10;55.90;;;;;;221876;1266;24244;-41
2023/01/25 07:45:08;;;;;;;17.30;12.10;;;22.00;56.20;;;;;;221796;1270;25331;-42
2023/01/25 07:50:13;;;;;;;14.00;11.60;;;22.00;56.50;;;;;;221901;1263;26665;-42
2023/01/25 07:55:16;;;;;;;25.20;14.40;;;22.00;56.30;;;;;;222025;1263;22520;-42
2023/01/25 08:00:21;;;;;;;16.00;12.50;;;22.00;56.70;;;;;;221735;1263;22539;-42
2023/01/25 08:05:27;;;;;;;17.60;12.20;;;21.90;56.10;;;;;;221961;1264;22635;-42
2023/01/25 08:10:31;;;;;;;20.10;14.20;;;21.80;55.60;;;;;;222144;1263;24211;-42
2023/01/25 08:15:35;;;;;;;17.60;13.70;;;21.70;54.00;;;;;;221613;1262;24215;-42
2023/01/25 08:20:39;;;;;;;19.30;13.30;;;21.70;54.20;;;;;;224369;1259;24209;-41
2023/01/25 08:25:43;;;;;;;23.30;12.60;;;21.70;53.80;;;;;;223952;1262;22647;-41
2023/01/25 08:30:48;;;;;;;17.10;12.90;;;21.80;53.30;;;;;;229523;1267;22235;-42
2023/01/25 08:36:00;;;;;;;15.40;12.50;;;22.30;52.30;;;;;;229871;1264;22353;-42
2023/01/25 08:41:06;;;;;;;16.40;11.70;;;22.70;51.10;;;;;;225095;1269;22533;-43
2023/01/25 08:46:11;;;;;;;20.00;12.70;;;22.70;51.10;;;;;;221975;1258;25389;-43
2023/01/25 08:51:16;;;;;;;15.50;11.90;;;22.80;50.50;;;;;;224169;1256;23112;-47
2023/01/25 08:56:20;;;;;;;17.20;12.70;;;22.90;50.30;;;;;;222006;1259;24313;-47
2023/01/25 09:01:24;;;;;;;18.10;11.60;;;23.00;50.10;;;;;;222018;1259;25471;-49
2023/01/25 09:06:28;;;;;;;12.40;10.90;;;23.00;50.00;;;;;;222017;1256;22750;-51
2023/01/25 09:11:35;;;;;;;16.20;13.00;;;23.00;49.60;;;;;;221997;1257;22667;-50
2023/01/25 09:16:39;;;;;;;13.60;11.70;;;23.10;49.50;;;;;;222051;1256;24205;-48
2023/01/25 09:21:43;;;;;;;15.30;11.60;;;23.20;49.20;;;;;;222456;1256;22815;-49
2023/01/25 09:26:49;;;;;;;15.30;11.80;;;23.10;49.20;;;;;;222017;1256;22536;-45
2023/01/25 09:32:02;;;;;;;12.90;11.60;;;23.30;49.20;;;;;;222112;1257;22622;-45
2023/01/25 09:37:08;;;;;;;13.40;11.80;;;23.30;48.90;;;;;;222021;1259;25588;-47
2023/01/25 09:42:31;;;;;;;12.00;10.80;;;23.30;48.90;;;;;;222122;1257;22532;-47
2023/01/25 09:47:58;;;;;;;13.10;10.60;;;23.40;48.30;;;;;;222157;1263;22563;-47
2023/01/25 09:53:18;;;;;;;23.40;20.80;;;23.40;48.70;;;;;;222140;1256;23046;-50
2023/01/25 09:58:31;;;;;;;27.40;24.20;;;23.50;48.80;;;;;;222041;1263;22542;-51
2023/01/25 10:03:49;;;;;;;34.20;30.60;;;23.60;48.00;;;;;;222154;1256;22638;-49
2023/01/25 10:09:00;;;;;;;43.80;39.10;;;23.60;48.10;;;;;;222111;1264;22543;-45
2023/01/25 10:14:12;;;;;;;46.80;41.90;;;23.60;47.80;;;;;;222235;1255;25475;-47
2023/01/25 10:19:24;;;;;;;51.00;45.70;;;23.70;47.70;;;;;;222233;1267;22760;-46
2023/01/25 10:24:41;;;;;;;48.00;43.00;;;23.70;48.00;;;;;;222140;1257;22541;-47
2023/01/25 10:29:47;;;;;;;49.50;43.40;;;23.70;47.70;;;;;;222142;1262;25455;-45
2023/01/25 10:34:55;;;;;;;45.50;40.90;;;23.70;47.80;;;;;;222168;1260;22709;-48
2023/01/25 10:40:03;;;;;;;42.20;38.00;;;23.70;47.70;;;;;;222015;1257;22534;-51
2023/01/25 10:45:15;;;;;;;43.70;39.20;;;23.50;48.40;;;;;;222158;1263;25116;-49
2023/01/25 10:50:37;;;;;;;;;;;23.30;48.10;;;;;;222196;1247;22515;-50
2023/01/25 10:56:10;;;;;;;40.00;35.80;;;23.30;48.60;;;;;;222039;1260;23859;-49
2023/01/25 11:01:29;;;;;;;39.10;35.20;;;23.30;48.40;;;;;;222009;1270;22651;-51
2023/01/25 11:06:46;;;;;;;38.10;34.10;;;23.10;48.50;;;;;;222270;1267;25580;-49
2023/01/25 11:12:06;;;;;;;36.90;33.20;;;22.90;48.60;;;;;;222190;1256;25462;-51
2023/01/25 11:17:40;;;;;;;35.40;31.60;;;22.90;48.70;;;;;;222155;1257;23839;-49
2023/01/25 11:22:55;;;;;;;35.30;31.60;;;22.70;48.90;;;;;;221151;1270;26741;-47
2023/01/25 11:28:17;;;;;;;34.90;31.50;;;22.70;49.70;;;;;;221078;1262;22536;-44
2023/01/25 11:33:24;;;;;;;34.80;31.20;;;22.60;49.70;;;;;;221060;1263;24520;-43
2023/01/25 11:38:29;;;;;;;35.00;31.50;;;22.40;51.00;;;;;;221027;1262;25304;-45
2023/01/25 11:43:59;;;;;;;32.80;29.50;;;22.40;51.00;;;;;;220964;1262;22647;-43
2023/01/25 11:49:26;;;;;;;32.30;29.10;;;22.50;51.00;;;;;;221005;1256;24359;-45
2023/01/25 11:54:51;;;;;;;32.20;29.10;;;22.40;51.70;;;;;;221115;1267;25599;-43
2023/01/25 12:00:13;;;;;;;29.10;25.80;;;22.20;52.40;;;;;;221728;1268;23909;-44
2023/01/25 12:05:36;;;;;;;29.70;26.80;;;22.20;52.40;;;;;;221704;1259;24241;-45
2023/01/25 12:10:59;;;;;;;29.60;26.50;;;22.10;52.60;;;;;;221733;1256;22553;-44
2023/01/25 12:16:54;;;;;;;27.80;25.10;;;22.10;52.80;;;;;;221876;1271;25545;-47
2023/01/25 12:22:03;;;;;;;26.90;24.10;;;22.00;53.20;;;;;;220866;1259;24367;-48
2023/01/25 12:27:17;;;;;;;26.50;24.00;;;21.90;53.30;;;;;;220861;1272;25251;-46
2023/01/25 12:32:30;;;;;;;26.30;23.90;;;21.80;54.00;;;;;;221006;1262;22676;-40
2023/01/25 12:37:39;;;;;;;26.20;23.50;;;21.80;54.40;;;;;;220953;1264;22639;-43
2023/01/25 12:42:57;;;;;;;24.50;22.00;;;21.70;54.40;;;;;;220975;1272;22647;-45
2023/01/25 12:48:23;;;;;;;23.80;21.10;;;21.90;53.50;;;;;;220922;1255;24228;-44
2023/01/25 12:53:34;;;;;;;23.10;20.80;;;22.30;53.20;;;;;;221172;1270;22753;-43
2023/01/25 12:58:38;;;;;;;;;;;22.40;53.00;;;;;;221734;1266;22505;-48
2023/01/25 13:04:19;;;;;;;22.80;20.50;;;22.60;53.10;;;;;;221672;1269;24212;-48
2023/01/25 13:09:42;;;;;;;21.90;19.80;;;22.70;53.10;;;;;;221840;1264;22544;-41
2023/01/25 13:14:46;;;;;;;20.30;18.30;;;22.70;53.00;;;;;;221788;1268;22627;-46
2023/01/25 13:19:52;;;;;;;19.80;17.90;;;22.80;53.40;;;;;;221675;1266;22610;-44
2023/01/25 13:25:02;;;;;;;20.80;18.70;;;22.70;53.50;;;;;;221628;1266;22527;-46
2023/01/25 13:30:09;;;;;;;21.20;19.20;;;22.80;53.10;;;;;;222064;1263;22536;-46
2023/01/25 13:35:34;;;;;;;20.70;18.70;;;22.90;53.20;;;;;;221819;1254;24203;-48
2023/01/25 13:40:39;;;;;;;20.10;18.10;;;23.00;53.40;;;;;;221846;1263;22946;-48
2023/01/25 13:45:46;;;;;;;20.10;18.00;;;22.90;53.60;;;;;;221885;1263;22653;-41
2023/01/25 13:50:54;;;;;;;19.90;18.00;;;23.00;53.50;;;;;;221904;1260;23971;-44
2023/01/25 13:55:59;;;;;;;18.80;17.00;;;23.10;53.30;;;;;;221644;1259;22682;-42
2023/01/25 14:01:06;;;;;;;18.80;17.00;;;23.10;53.20;;;;;;220866;1271;25285;-48
2023/01/25 14:06:17;;;;;;;18.00;16.20;;;23.10;53.10;;;;;;220911;1276;22540;-46
2023/01/25 14:11:25;;;;;;;17.70;15.90;;;23.20;53.30;;;;;;220733;1271;158884;-48
2023/01/25 14:16:31;;;;;;;18.20;16.40;;;23.20;53.00;;;;;;221044;1270;26255;-49
2023/01/25 14:21:34;;;;;;;17.50;15.80;;;23.20;53.80;;;;;;221896;1263;22534;-46
2023/01/25 14:26:40;;;;;;;17.30;15.70;;;23.20;54.20;;;;;;221837;1250;22673;-44
2023/01/25 14:31:49;;;;;;;18.30;15.30;;;23.20;53.90;;;;;;221738;1263;24485;-46
2023/01/25 14:37:19;;;;;;;17.70;16.00;;;23.20;53.90;;;;;;221948;1254;25486;-48
2023/01/25 14:42:23;;;;;;;17.50;15.10;;;23.10;54.10;;;;;;221616;1257;23046;-43
2023/01/25 14:47:29;;;;;;;16.70;15.00;;;23.00;54.90;;;;;;221753;1265;22696;-49
2023/01/25 14:52:34;;;;;;;16.60;15.00;;;23.00;54.70;;;;;;222116;1256;24209;-44
2023/01/25 14:57:39;;;;;;;15.70;14.00;;;22.90;54.30;;;;;;221949;1266;25249;-45
2023/01/25 15:02:48;;;;;;;15.50;13.90;;;22.80;54.70;;;;;;221815;1270;25304;-46
2023/01/25 15:08:14;;;;;;;15.30;13.90;;;22.80;54.70;;;;;;221969;1266;25291;-45
2023/01/25 15:13:20;;;;;;;16.50;14.70;;;22.80;54.10;;;;;;222197;1263;22541;-45
2023/01/25 15:18:48;;;;;;;16.10;14.40;;;22.70;54.10;;;;;;222024;1266;22536;-48
2023/01/25 15:23:55;;;;;;;19.40;14.60;;;22.70;54.20;;;;;;222294;1269;22661;-45
2023/01/25 15:29:25;;;;;;;14.90;13.40;;;22.50;54.60;;;;;;222088;1263;26522;-47
2023/01/25 15:34:33;;;;;;;14.90;13.60;;;22.40;54.40;;;;;;222206;1266;25422;-51
2023/01/25 15:39:37;;;;;;;15.00;13.60;;;22.30;54.50;;;;;;222137;1263;25520;-46
2023/01/25 15:44:43;;;;;;;16.00;14.50;;;22.30;55.00;;;;;;222047;1263;22777;-53
2023/01/25 15:49:49;;;;;;;15.30;13.80;;;22.20;55.60;;;;;;222060;1269;25504;-50
2023/01/25 15:54:53;;;;;;;16.10;14.50;;;22.20;55.40;;;;;;222145;1256;25482;-49
2023/01/25 16:00:05;;;;;;;14.00;12.80;;;22.20;55.50;;;;;;221896;1266;24205;-51
2023/01/25 16:05:12;;;;;;;15.50;14.00;;;22.10;55.70;;;;;;222123;1263;22537;-48
2023/01/25 16:10:21;;;;;;;14.30;12.80;;;22.00;56.10;;;;;;222063;1267;25458;-48
2023/01/25 16:15:26;;;;;;;14.50;13.10;;;22.00;56.30;;;;;;222270;1269;25249;-48
2023/01/25 16:20:31;;;;;;;15.10;13.70;;;21.90;56.50;;;;;;222021;1263;25461;-45
2023/01/25 16:25:36;;;;;;;15.30;13.30;;;21.90;56.40;;;;;;222243;1267;25249;-48
2023/01/25 16:30:45;;;;;;;17.10;13.10;;;21.80;56.70;;;;;;221984;1267;23764;-49
2023/01/25 16:36:03;;;;;;;14.50;12.80;;;22.10;55.30;;;;;;222056;1263;22530;-50
2023/01/25 16:41:13;;;;;;;14.00;12.40;;;22.30;55.40;;;;;;229226;1263;26645;-48
2023/01/25 16:46:23;;;;;;;14.30;12.80;;;22.70;53.90;;;;;;222555;1269;24560;-46
2023/01/25 16:51:28;;;;;;;13.90;12.60;;;22.90;53.30;;;;;;222168;1256;22533;-48
2023/01/25 16:56:34;;;;;;;14.00;11.50;;;22.90;53.60;;;;;;222098;1270;22557;-48
2023/01/25 17:24:03;;;;;;;14.00;11.20;;;23.10;54.10;;;;;;222042;1266;22740;-48
2023/01/25 17:29:09;;;;;;;12.90;11.60;;;23.20;54.20;;;;;;222023;1263;23875;-47
2023/01/25 17:34:18;;;;;;;14.30;12.90;;;23.20;54.70;;;;;;222009;1266;24475;-51
2023/01/25 17:39:27;;;;;;;13.10;11.60;;;23.20;55.10;;;;;;222231;1251;24196;-53
2023/01/25 17:44:33;;;;;;;12.80;11.50;;;23.20;55.20;;;;;;222065;1261;22534;-47
2023/01/25 17:49:38;;;;;;;13.00;11.40;;;23.30;55.50;;;;;;222134;1263;22538;-50
2023/01/25 17:54:48;;;;;;;14.30;11.50;;;23.30;55.70;;;;;;222144;1263;23937;-51
2023/01/25 17:59:54;;;;;;;14.10;11.70;;;23.20;56.30;;;;;;222172;1264;24216;-51
2023/01/25 18:05:02;;;;;;;12.40;11.10;;;23.10;57.20;;;;;;222163;1247;24253;-51
2023/01/25 18:10:22;;;;;;;14.10;12.60;;;23.20;57.30;;;;;;222042;1263;25469;-54
2023/01/25 18:15:30;;;;;;;13.30;11.70;;;23.20;57.20;;;;;;225411;1263;23884;-47
2023/01/25 18:20:38;;;;;;;16.20;13.10;;;23.10;56.90;;;;;;221763;1260;24266;-46
2023/01/25 18:25:47;;;;;;;16.40;12.50;;;23.20;57.00;;;;;;222221;1266;22911;-49
2023/01/25 18:31:05;;;;;;;14.40;12.80;;;23.10;57.30;;;;;;222177;1256;23883;-52
2023/01/25 18:36:14;;;;;;;14.40;12.30;;;22.90;59.10;;;;;;222282;1259;24351;-54
2023/01/25 18:41:23;;;;;;;18.10;12.70;;;22.90;58.40;;;;;;222183;1269;26548;-52
2023/01/25 18:46:29;;;;;;;20.70;12.70;;;22.70;60.70;;;;;;222189;1263;22533;-49
2023/01/25 18:51:38;;;;;;;13.60;12.10;;;22.60;60.80;;;;;;221963;1269;22736;-49
2023/01/25 18:57:06;;;;;;;12.90;11.30;;;22.50;61.20;;;;;;222097;1266;25413;-50
2023/01/25 19:02:15;;;;;;;20.30;13.20;;;22.30;60.40;;;;;;222084;1269;25246;-51
2023/01/25 19:07:23;;;;;;;17.60;12.90;;;22.30;62.50;;;;;;222087;1268;23995;-49
2023/01/25 19:12:29;;;;;;;15.20;13.40;;;22.30;61.70;;;;;;222517;1263;22530;-50
2023/01/25 19:17:39;;;;;;;15.00;12.20;;;22.30;61.70;;;;;;222359;1263;22534;-49
2023/01/25 19:22:53;;;;;;;17.50;12.60;;;22.20;62.80;;;;;;222211;1266;25546;-50
2023/01/25 19:28:00;;;;;;;18.60;13.90;;;22.00;62.90;;;;;;222194;1269;26707;-51
2023/01/25 19:33:06;;;;;;;18.40;12.70;;;21.90;64.10;;;;;;221014;1275;24228;-47
2023/01/25 19:38:14;;;;;;;19.20;13.00;;;21.90;63.80;;;;;;221029;1275;22549;-46
2023/01/25 19:43:20;;;;;;;14.20;11.70;;;21.80;63.20;;;;;;221080;1274;25547;-47
2023/01/25 19:48:31;;;;;;;17.70;12.30;;;21.80;64.10;;;;;;221253;1258;24196;-47
2023/01/25 19:53:39;;;;;;;17.50;13.10;;;21.90;63.60;;;;;;222099;1267;24364;-47
2023/01/25 19:58:49;;;;;;;16.40;13.30;;;21.90;63.20;;;;;;222024;1270;22571;-47
2023/01/25 20:03:58;;;;;;;16.50;12.90;;;21.80;62.50;;;;;;222016;1270;25303;-50
2023/01/25 20:09:04;;;;;;;14.90;12.60;;;21.90;62.30;;;;;;221950;1263;22788;-49
2023/01/25 20:14:12;;;;;;;18.40;12.90;;;21.90;62.20;;;;;;221788;1270;23869;-49
2023/01/25 20:19:20;;;;;;;17.10;13.00;;;22.00;60.90;;;;;;222155;1269;22997;-49
2023/01/25 20:24:32;;;;;;;16.30;12.90;;;22.00;60.40;;;;;;222318;1263;25420;-45
2023/01/25 20:29:40;;;;;;;14.80;12.70;;;21.90;60.90;;;;;;222292;1267;22528;-52
2023/01/25 20:34:47;;;;;;;16.00;12.60;;;21.80;60.70;;;;;;222169;1266;24208;-47
2023/01/25 20:39:56;;;;;;;15.80;12.80;;;21.70;60.60;;;;;;222013;1246;24193;-47
2023/01/25 20:45:03;;;;;;;14.80;13.10;;;21.70;60.70;;;;;;222223;1267;22787;-49
2023/01/25 20:50:16;;;;;;;14.20;12.80;;;21.70;60.30;;;;;;222188;1259;23908;-49
2023/01/25 20:55:24;;;;;;;18.20;12.60;;;21.60;61.00;;;;;;222267;1267;24230;-51
2023/01/25 21:00:30;;;;;;;32.20;13.20;;;21.60;60.50;;;;;;222153;1263;22586;-52
2023/01/25 21:05:47;;;;;;;18.70;12.90;;;21.80;63.00;;;;;;222202;1247;24202;-53
2023/01/25 21:10:58;;;;;;;17.10;12.20;;;22.10;61.60;;;;;;222225;1266;22759;-51
2023/01/25 21:16:08;;;;;;;23.00;11.60;;;22.20;61.30;;;;;;222257;1269;25304;-48
2023/01/25 21:21:25;;;;;;;22.70;13.60;;;22.40;59.90;;;;;;222195;1264;24206;-48
2023/01/25 21:26:31;;;;;;;;;;;22.70;59.20;;;;;;222216;1269;26264;-48
2023/01/25 21:31:38;;;;;;;16.00;11.10;;;22.80;59.00;;;;;;222185;1263;25412;-51
2023/01/25 21:36:47;;;;;;;17.10;11.30;;;22.90;59.40;;;;;;222230;1263;22531;-49
2023/01/25 21:41:53;;;;;;;16.20;11.50;;;22.90;59.60;;;;;;222301;1260;22528;-46
2023/01/25 21:46:58;;;;;;;14.30;11.50;;;22.90;59.80;;;;;;221915;1266;22563;-49
2023/01/25 21:52:24;;;;;;;13.10;11.10;;;22.80;59.60;;;;;;222255;1263;24206;-47
2023/01/25 21:57:29;;;;;;;13.50;11.10;;;22.70;59.60;;;;;;222374;1263;22534;-48
2023/01/25 22:02:33;;;;;;;25.60;11.70;;;22.90;59.90;;;;;;222106;1269;22610;-49
2023/01/25 22:07:37;;;;;;;12.60;11.30;;;23.00;59.10;;;;;;222286;1264;25997;-49
2023/01/25 22:12:41;;;;;;;16.10;10.30;;;23.10;58.90;;;;;;222164;1263;22643;-51
2023/01/25 22:17:45;;;;;;;15.30;10.50;;;23.20;58.70;;;;;;222229;1267;22524;-52
2023/01/25 22:22:50;;;;;;;13.80;10.00;;;23.30;59.40;;;;;;222465;1263;22538;-52
2023/01/25 22:27:59;;;;;;;16.90;9.70;;;23.40;59.90;;;;;;222249;1270;26595;-50
2023/01/25 22:33:03;;;;;;;12.80;10.00;;;23.50;59.90;;;;;;221847;1269;25488;-50
2023/01/25 22:38:07;;;;;;;12.20;10.50;;;23.60;59.80;;;;;;221851;1263;25174;-47
2023/01/25 22:43:11;;;;;;;12.00;10.40;;;23.70;59.80;;;;;;221751;1264;24214;-49
2023/01/25 22:48:15;;;;;;;11.40;10.20;;;23.70;59.70;;;;;;221772;1266;22543;-50
2023/01/25 22:53:19;;;;;;;11.70;10.10;;;23.80;59.80;;;;;;222045;1264;24881;-49
2023/01/25 22:58:23;;;;;;;12.00;9.90;;;23.80;59.70;;;;;;221971;1270;22570;-50
2023/01/25 23:03:28;;;;;;;10.60;9.40;;;23.70;60.60;;;;;;221954;1270;24147;-47
2023/01/25 23:08:35;;;;;;;10.80;9.70;;;23.60;60.20;;;;;;221822;1249;22663;-51
2023/01/25 23:13:39;;;;;;;11.30;10.20;;;23.50;60.50;;;;;;221744;1266;23732;-50
2023/01/25 23:18:49;;;;;;;11.00;9.70;;;23.40;60.80;;;;;;222407;1270;24210;-47
2023/01/25 23:23:55;;;;;;;10.90;9.60;;;23.30;60.90;;;;;;221846;1263;22619;-50
2023/01/25 23:28:59;;;;;;;12.40;9.70;;;23.20;61.10;;;;;;221900;1263;22538;-48
2023/01/25 23:34:05;;;;;;;11.20;10.10;;;23.10;61.80;;;;;;222168;1269;22808;-49
2023/01/25 23:39:11;;;;;;;15.10;11.40;;;23.00;61.60;;;;;;222310;1269;22740;-46
2023/01/25 23:44:15;;;;;;;12.80;10.50;;;23.00;61.70;;;;;;222304;1269;23991;-51
2023/01/25 23:49:20;;;;;;;11.40;10.20;;;22.90;61.70;;;;;;222237;1259;23931;-50
2023/01/25 23:54:25;;;;;;;18.30;10.50;;;22.80;62.20;;;;;;222187;1267;22831;-50
2023/01/25 23:59:30;;;;;;;16.10;10.50;;;22.70;65.10;;;;;;222254;1256;24273;-50
